sensor_id;sensor_type;location;lat;lon;timestamp;pressure;altitude;pressure_sealevel;temperature;humidity
62779;BME280;48821;48.796;2.396;2024-01-15T00:00:01;100945.34;;;1.98;64.83
62779;BME280;48821;48.796;2.396;2024-01-15T00:01:13;100942.75;;;1.98;64.35
62779;BME280;48821;48.796;2.396;2024-01-15T00:02:24;100938.44;;;1.99;64.71
62779;BME280;48821;48.796;2.396;2024-01-15T00:03:36;100945.34;;;1.98;65.40
62779;BME280;48821;48.796;2.396;2024-01-15T00:04:48;100934.97;;;1.98;65.11
62779;BME280;48821;48.796;2.396;2024-01-15T00:06:00;100941.03;;;2.00;64.80
62779;BME280;48821;48.796;2.396;2024-01-15T00:07:11;100936.72;;;2.01;64.89
62779;BME280;48821;48.796;2.396;2024-01-15T00:08:23;100935.00;;;2.00;65.15
62779;BME280;48821;48.796;2.396;2024-01-15T00:09:35;100931.53;;;2.01;64.68
62779;BME280;48821;48.796;2.396;2024-01-15T00:10:47;100935.88;;;2.04;65.71
62779;BME280;48821;48.796;2.396;2024-01-15T00:12:00;100935.88;;;2.04;65.34
62779;BME280;48821;48.796;2.396;2024-01-15T00:13:11;100932.44;;;2.05;65.59
62779;BME280;48821;48.796;2.396;2024-01-15T00:14:24;100924.66;;;2.06;65.06
62779;BME280;48821;48.796;2.396;2024-01-15T00:15:36;100922.94;;;2.07;64.96
62779;BME280;48821;48.796;2.396;2024-01-15T00:16:48;100916.88;;;2.08;65.43
62779;BME280;48821;48.796;2.396;2024-01-15T00:18:02;100912.56;;;2.10;64.90
62779;BME280;48821;48.796;2.396;2024-01-15T00:19:14;100908.25;;;2.09;65.12
62779;BME280;48821;48.796;2.396;2024-01-15T00:20:26;100909.13;;;2.09;64.50
62779;BME280;48821;48.796;2.396;2024-01-15T00:21:37;100903.94;;;2.09;64.69
62779;BME280;48821;48.796;2.396;2024-01-15T00:22:47;100903.06;;;2.09;65.08
62779;BME280;48821;48.796;2.396;2024-01-15T00:23:59;100897.00;;;2.08;64.95
62779;BME280;48821;48.796;2.396;2024-01-15T00:25:10;100901.34;;;2.09;64.75
62779;BME280;48821;48.796;2.396;2024-01-15T00:26:22;100896.16;;;2.09;65.22
62779;BME280;48821;48.796;2.396;2024-01-15T00:27:34;100899.63;;;2.10;64.77
62779;BME280;48821;48.796;2.396;2024-01-15T00:28:46;100897.03;;;2.10;64.61
62779;BME280;48821;48.796;2.396;2024-01-15T00:29:58;100899.63;;;2.10;65.28
62779;BME280;48821;48.796;2.396;2024-01-15T00:31:10;100903.03;;;2.10;65.39
62779;BME280;48821;48.796;2.396;2024-01-15T00:32:21;100899.59;;;2.11;64.95
62779;BME280;48821;48.796;2.396;2024-01-15T00:33:33;100889.22;;;2.13;65.25
62779;BME280;48821;48.796;2.396;2024-01-15T00:34:45;100890.97;;;2.14;65.21
62779;BME280;48821;48.796;2.396;2024-01-15T00:35:57;100893.56;;;2.14;65.22
62779;BME280;48821;48.796;2.396;2024-01-15T00:37:09;100896.16;;;2.16;65.51
62779;BME280;48821;48.796;2.396;2024-01-15T00:38:21;100893.56;;;2.14;65.26
62779;BME280;48821;48.796;2.396;2024-01-15T00:39:32;100893.56;;;2.16;64.87
62779;BME280;48821;48.796;2.396;2024-01-15T00:40:44;100886.66;;;2.16;65.14
62779;BME280;48821;48.796;2.396;2024-01-15T00:41:56;100890.13;;;2.17;65.40
62779;BME280;48821;48.796;2.396;2024-01-15T00:43:08;100883.19;;;2.16;65.41
62779;BME280;48821;48.796;2.396;2024-01-15T00:44:20;100884.94;;;2.17;64.96
62779;BME280;48821;48.796;2.396;2024-01-15T00:45:32;100889.25;;;2.16;65.44
62779;BME280;48821;48.796;2.396;2024-01-15T00:46:44;100890.13;;;2.18;65.19
62779;BME280;48821;48.796;2.396;2024-01-15T00:47:56;100887.53;;;2.17;65.38
62779;BME280;48821;48.796;2.396;2024-01-15T00:49:08;100880.63;;;2.17;64.82
62779;BME280;48821;48.796;2.396;2024-01-15T00:50:20;100877.16;;;2.17;65.07
62779;BME280;48821;48.796;2.396;2024-01-15T00:51:32;100872.84;;;2.17;65.45
62779;BME280;48821;48.796;2.396;2024-01-15T00:52:44;100863.31;;;2.16;65.13
62779;BME280;48821;48.796;2.396;2024-01-15T00:53:57;100865.06;;;2.17;65.43
62779;BME280;48821;48.796;2.396;2024-01-15T00:55:09;100865.91;;;2.18;64.85
62779;BME280;48821;48.796;2.396;2024-01-15T00:56:21;100860.72;;;2.18;65.53
62779;BME280;48821;48.796;2.396;2024-01-15T00:57:34;100865.94;;;2.19;65.03
62779;BME280;48821;48.796;2.396;2024-01-15T00:58:46;100868.53;;;2.19;64.78
62779;BME280;48821;48.796;2.396;2024-01-15T00:59:58;100871.13;;;2.19;65.44
62779;BME280;48821;48.796;2.396;2024-01-15T01:01:09;100870.25;;;2.19;65.03
62779;BME280;48821;48.796;2.396;2024-01-15T01:02:21;100867.66;;;2.17;65.32
62779;BME280;48821;48.796;2.396;2024-01-15T01:03:33;100870.25;;;2.17;65.15
62779;BME280;48821;48.796;2.396;2024-01-15T01:04:44;100871.09;;;2.18;65.17
62779;BME280;48821;48.796;2.396;2024-01-15T01:05:56;100861.59;;;2.18;65.40
62779;BME280;48821;48.796;2.396;2024-01-15T01:07:08;100864.19;;;2.18;64.55
62779;BME280;48821;48.796;2.396;2024-01-15T01:08:20;100862.47;;;2.17;64.85
62779;BME280;48821;48.796;2.396;2024-01-15T01:09:31;100859.00;;;2.17;65.17
62779;BME280;48821;48.796;2.396;2024-01-15T01:10:43;100861.56;;;2.15;64.99
62779;BME280;48821;48.796;2.396;2024-01-15T01:11:56;100855.53;;;2.15;65.10
62779;BME280;48821;48.796;2.396;2024-01-15T01:13:09;100854.66;;;2.14;65.07
62779;BME280;48821;48.796;2.396;2024-01-15T01:14:20;100849.47;;;2.14;65.44
62779;BME280;48821;48.796;2.396;2024-01-15T01:15:32;100848.59;;;2.15;65.44
62779;BME280;48821;48.796;2.396;2024-01-15T01:16:43;100847.75;;;2.16;65.19
62779;BME280;48821;48.796;2.396;2024-01-15T01:17:55;100846.03;;;2.18;65.18
62779;BME280;48821;48.796;2.396;2024-01-15T01:19:07;100845.19;;;2.19;65.50
62779;BME280;48821;48.796;2.396;2024-01-15T01:20:19;100850.38;;;2.19;65.09
62779;BME280;48821;48.796;2.396;2024-01-15T01:21:33;100841.72;;;2.20;65.15
62779;BME280;48821;48.796;2.396;2024-01-15T01:22:44;100851.25;;;2.21;65.64
62779;BME280;48821;48.796;2.396;2024-01-15T01:23:56;100853.81;;;2.23;64.56
62779;BME280;48821;48.796;2.396;2024-01-15T01:25:08;100848.66;;;2.21;65.63
62779;BME280;48821;48.796;2.396;2024-01-15T01:26:20;100851.25;;;2.21;65.94
62779;BME280;48821;48.796;2.396;2024-01-15T01:27:31;100847.78;;;2.21;64.83
62779;BME280;48821;48.796;2.396;2024-01-15T01:28:41;100851.25;;;2.21;65.42
62779;BME280;48821;48.796;2.396;2024-01-15T01:29:54;100859.00;;;2.23;64.99
62779;BME280;48821;48.796;2.396;2024-01-15T01:31:05;100851.25;;;2.21;65.39
62779;BME280;48821;48.796;2.396;2024-01-15T01:32:17;100853.84;;;2.21;65.03
62779;BME280;48821;48.796;2.396;2024-01-15T01:33:28;100853.81;;;2.23;65.13
62779;BME280;48821;48.796;2.396;2024-01-15T01:34:41;100846.94;;;2.22;65.04
62779;BME280;48821;48.796;2.396;2024-01-15T01:35:53;100846.91;;;2.20;65.38
62779;BME280;48821;48.796;2.396;2024-01-15T01:37:06;100852.09;;;2.20;65.49
62779;BME280;48821;48.796;2.396;2024-01-15T01:38:18;100856.44;;;2.21;64.77
62779;BME280;48821;48.796;2.396;2024-01-15T01:39:30;100845.19;;;2.21;65.83
62779;BME280;48821;48.796;2.396;2024-01-15T01:40:43;100851.25;;;2.21;65.12
62779;BME280;48821;48.796;2.396;2024-01-15T01:41:55;100848.66;;;2.21;65.01
62779;BME280;48821;48.796;2.396;2024-01-15T01:43:09;100846.94;;;2.22;64.58
62779;BME280;48821;48.796;2.396;2024-01-15T01:44:20;100851.25;;;2.21;65.75
62779;BME280;48821;48.796;2.396;2024-01-15T01:45:32;100850.34;;;2.22;65.28
62779;BME280;48821;48.796;2.396;2024-01-15T01:46:44;100852.09;;;2.22;65.58
62779;BME280;48821;48.796;2.396;2024-01-15T01:47:56;100847.75;;;2.22;64.94
62779;BME280;48821;48.796;2.396;2024-01-15T01:49:07;100850.38;;;2.24;65.40
62779;BME280;48821;48.796;2.396;2024-01-15T01:50:21;100849.50;;;2.23;65.10
62779;BME280;48821;48.796;2.396;2024-01-15T01:51:34;100851.22;;;2.23;65.15
62779;BME280;48821;48.796;2.396;2024-01-15T01:52:48;100849.50;;;2.23;65.14
62779;BME280;48821;48.796;2.396;2024-01-15T01:54:00;100841.72;;;2.23;65.66
62779;BME280;48821;48.796;2.396;2024-01-15T01:55:12;100840.88;;;2.24;66.00
62779;BME280;48821;48.796;2.396;2024-01-15T01:56:24;100840.88;;;2.26;65.26
62779;BME280;48821;48.796;2.396;2024-01-15T01:57:36;100840.88;;;2.26;65.05
62779;BME280;48821;48.796;2.396;2024-01-15T01:58:48;100833.09;;;2.26;65.27
62779;BME280;48821;48.796;2.396;2024-01-15T02:00:00;100835.69;;;2.28;65.24
62779;BME280;48821;48.796;2.396;2024-01-15T02:01:12;100832.25;;;2.29;65.75
62779;BME280;48821;48.796;2.396;2024-01-15T02:02:24;100833.94;;;2.30;65.58
62779;BME280;48821;48.796;2.396;2024-01-15T02:03:35;100828.75;;;2.30;64.77
62779;BME280;48821;48.796;2.396;2024-01-15T02:04:49;100830.50;;;2.31;65.68
62779;BME280;48821;48.796;2.396;2024-01-15T02:06:00;100833.97;;;2.31;65.20
62779;BME280;48821;48.796;2.396;2024-01-15T02:07:12;100831.38;;;2.33;65.45
62779;BME280;48821;48.796;2.396;2024-01-15T02:08:25;100829.66;;;2.33;65.74
62779;BME280;48821;48.796;2.396;2024-01-15T02:09:37;100828.78;;;2.33;65.18
62779;BME280;48821;48.796;2.396;2024-01-15T02:10:49;100833.13;;;2.34;65.64
62779;BME280;48821;48.796;2.396;2024-01-15T02:12:01;100828.78;;;2.33;65.09
62779;BME280;48821;48.796;2.396;2024-01-15T02:13:13;100826.19;;;2.33;65.42
62779;BME280;48821;48.796;2.396;2024-01-15T02:14:25;100820.13;;;2.32;65.18
62779;BME280;48821;48.796;2.396;2024-01-15T02:15:37;100817.53;;;2.32;65.37
62779;BME280;48821;48.796;2.396;2024-01-15T02:16:49;100818.41;;;2.31;65.23
62779;BME280;48821;48.796;2.396;2024-01-15T02:18:03;100816.69;;;2.32;64.88
62779;BME280;48821;48.796;2.396;2024-01-15T02:19:17;100811.50;;;2.32;64.85
62779;BME280;48821;48.796;2.396;2024-01-15T02:20:29;100801.97;;;2.32;64.88
62779;BME280;48821;48.796;2.396;2024-01-15T02:21:40;100804.56;;;2.32;65.29
62779;BME280;48821;48.796;2.396;2024-01-15T02:22:53;100797.66;;;2.33;65.61
62779;BME280;48821;48.796;2.396;2024-01-15T02:24:05;100795.94;;;2.32;65.53
62779;BME280;48821;48.796;2.396;2024-01-15T02:25:16;100797.66;;;2.33;64.85
62779;BME280;48821;48.796;2.396;2024-01-15T02:26:28;100783.81;;;2.32;64.96
62779;BME280;48821;48.796;2.396;2024-01-15T02:27:41;100791.63;;;2.34;65.29
62779;BME280;48821;48.796;2.396;2024-01-15T02:28:53;100794.22;;;2.34;65.97
62779;BME280;48821;48.796;2.396;2024-01-15T02:30:06;100790.75;;;2.33;64.56
62779;BME280;48821;48.796;2.396;2024-01-15T02:31:19;100788.16;;;2.33;66.04
62779;BME280;48821;48.796;2.396;2024-01-15T02:32:31;100783.84;;;2.34;65.08
62779;BME280;48821;48.796;2.396;2024-01-15T02:33:43;100783.84;;;2.34;65.24
62779;BME280;48821;48.796;2.396;2024-01-15T02:34:57;100776.91;;;2.36;64.93
62779;BME280;48821;48.796;2.396;2024-01-15T02:36:10;100771.72;;;2.36;65.32
62779;BME280;48821;48.796;2.396;2024-01-15T02:37:22;100770.84;;;2.35;65.41
62779;BME280;48821;48.796;2.396;2024-01-15T02:38:34;100754.44;;;2.38;65.45
62779;BME280;48821;48.796;2.396;2024-01-15T02:39:45;100770.00;;;2.38;65.35
62779;BME280;48821;48.796;2.396;2024-01-15T02:40:58;100772.59;;;2.38;65.34
62779;BME280;48821;48.796;2.396;2024-01-15T02:42:10;100772.59;;;2.38;65.80
62779;BME280;48821;48.796;2.396;2024-01-15T02:43:22;100764.81;;;2.38;65.28
62779;BME280;48821;48.796;2.396;2024-01-15T02:44:33;100762.22;;;2.38;65.68
62779;BME280;48821;48.796;2.396;2024-01-15T02:45:45;100770.00;;;2.38;65.32
62779;BME280;48821;48.796;2.396;2024-01-15T02:46:58;100777.78;;;2.40;65.55
62779;BME280;48821;48.796;2.396;2024-01-15T02:48:11;100768.25;;;2.40;65.58
62779;BME280;48821;48.796;2.396;2024-01-15T02:49:22;100778.66;;;2.40;65.20
62779;BME280;48821;48.796;2.396;2024-01-15T02:50:35;100782.97;;;2.41;65.98
62779;BME280;48821;48.796;2.396;2024-01-15T02:51:47;100784.69;;;2.41;65.01
62779;BME280;48821;48.796;2.396;2024-01-15T02:52:59;100789.88;;;2.41;65.83
62779;BME280;48821;48.796;2.396;2024-01-15T02:54:12;100789.91;;;2.39;65.80
62779;BME280;48821;48.796;2.396;2024-01-15T02:55:24;100787.28;;;2.38;65.45
62779;BME280;48821;48.796;2.396;2024-01-15T02:56:36;100780.34;;;2.35;65.54
62779;BME280;48821;48.796;2.396;2024-01-15T02:57:48;100782.09;;;2.36;66.00
62779;BME280;48821;48.796;2.396;2024-01-15T02:59:00;100789.88;;;2.38;65.26
62779;BME280;48821;48.796;2.396;2024-01-15T03:00:12;100789.00;;;2.35;65.04
62779;BME280;48821;48.796;2.396;2024-01-15T03:01:24;100803.72;;;2.38;66.06
62779;BME280;48821;48.796;2.396;2024-01-15T03:02:37;100794.22;;;2.37;65.55
62779;BME280;48821;48.796;2.396;2024-01-15T03:03:50;100795.94;;;2.36;65.22
62779;BME280;48821;48.796;2.396;2024-01-15T03:05:02;100803.72;;;2.36;65.33
62779;BME280;48821;48.796;2.396;2024-01-15T03:06:14;100796.81;;;2.37;65.34
62779;BME280;48821;48.796;2.396;2024-01-15T03:07:25;100797.69;;;2.39;65.78
62779;BME280;48821;48.796;2.396;2024-01-15T03:08:37;100795.09;;;2.39;65.61
62779;BME280;48821;48.796;2.396;2024-01-15T03:09:49;100794.22;;;2.40;65.45
62779;BME280;48821;48.796;2.396;2024-01-15T03:11:01;100792.47;;;2.42;65.47
62779;BME280;48821;48.796;2.396;2024-01-15T03:12:13;100792.47;;;2.42;65.12
62779;BME280;48821;48.796;2.396;2024-01-15T03:13:24;100794.22;;;2.43;65.52
62779;BME280;48821;48.796;2.396;2024-01-15T03:14:37;100796.81;;;2.45;65.76
62779;BME280;48821;48.796;2.396;2024-01-15T03:15:49;100797.69;;;2.45;65.58
62779;BME280;48821;48.796;2.396;2024-01-15T03:17:01;100791.63;;;2.45;65.67
62779;BME280;48821;48.796;2.396;2024-01-15T03:18:13;100795.09;;;2.45;65.28
62779;BME280;48821;48.796;2.396;2024-01-15T03:19:25;100797.69;;;2.45;65.78
62779;BME280;48821;48.796;2.396;2024-01-15T03:20:37;100804.63;;;2.46;65.65
62779;BME280;48821;48.796;2.396;2024-01-15T03:21:49;100793.34;;;2.47;65.74
62779;BME280;48821;48.796;2.396;2024-01-15T03:23:01;100789.88;;;2.47;66.12
62779;BME280;48821;48.796;2.396;2024-01-15T03:24:13;100795.09;;;2.49;65.76
62779;BME280;48821;48.796;2.396;2024-01-15T03:25:25;100789.03;;;2.50;65.61
62779;BME280;48821;48.796;2.396;2024-01-15T03:26:37;100788.19;;;2.49;66.28
62779;BME280;48821;48.796;2.396;2024-01-15T03:27:49;100793.38;;;2.51;65.26
62779;BME280;48821;48.796;2.396;2024-01-15T03:29:01;100791.66;;;2.51;65.87
62779;BME280;48821;48.796;2.396;2024-01-15T03:30:13;100792.53;;;2.52;65.57
62779;BME280;48821;48.796;2.396;2024-01-15T03:31:25;100794.22;;;2.53;65.29
62779;BME280;48821;48.796;2.396;2024-01-15T03:32:38;100796.81;;;2.53;65.83
62779;BME280;48821;48.796;2.396;2024-01-15T03:33:50;100795.09;;;2.53;65.66
62779;BME280;48821;48.796;2.396;2024-01-15T03:35:02;100798.56;;;2.54;65.64
62779;BME280;48821;48.796;2.396;2024-01-15T03:36:14;100795.97;;;2.54;65.25
62779;BME280;48821;48.796;2.396;2024-01-15T03:37:26;100795.97;;;2.54;65.51
62779;BME280;48821;48.796;2.396;2024-01-15T03:38:41;100791.66;;;2.54;65.51
62779;BME280;48821;48.796;2.396;2024-01-15T03:39:53;100797.69;;;2.55;65.90
62779;BME280;48821;48.796;2.396;2024-01-15T03:41:05;100802.88;;;2.55;65.67
62779;BME280;48821;48.796;2.396;2024-01-15T03:42:16;100802.03;;;2.54;66.17
62779;BME280;48821;48.796;2.396;2024-01-15T03:43:28;100803.75;;;2.55;65.32
62779;BME280;48821;48.796;2.396;2024-01-15T03:44:40;100809.81;;;2.56;66.10
62779;BME280;48821;48.796;2.396;2024-01-15T03:45:51;100807.22;;;2.57;65.58
62779;BME280;48821;48.796;2.396;2024-01-15T03:47:03;100808.09;;;2.58;65.89
62779;BME280;48821;48.796;2.396;2024-01-15T03:48:14;100808.09;;;2.58;66.08
62779;BME280;48821;48.796;2.396;2024-01-15T03:49:26;100802.03;;;2.59;66.33
62779;BME280;48821;48.796;2.396;2024-01-15T03:50:38;100802.91;;;2.58;65.37
62779;BME280;48821;48.796;2.396;2024-01-15T03:51:50;100794.25;;;2.57;64.89
62779;BME280;48821;48.796;2.396;2024-01-15T03:53:02;100798.56;;;2.58;65.39
62779;BME280;48821;48.796;2.396;2024-01-15T03:54:14;100790.78;;;2.60;66.03
62779;BME280;48821;48.796;2.396;2024-01-15T03:55:26;100784.72;;;2.59;65.22
62779;BME280;48821;48.796;2.396;2024-01-15T03:56:38;100801.16;;;2.60;65.37
62779;BME280;48821;48.796;2.396;2024-01-15T03:57:49;100800.31;;;2.61;65.52
62779;BME280;48821;48.796;2.396;2024-01-15T03:59:02;100789.06;;;2.59;65.76
62779;BME280;48821;48.796;2.396;2024-01-15T04:00:15;100789.94;;;2.61;65.79
62779;BME280;48821;48.796;2.396;2024-01-15T04:01:28;100791.66;;;2.61;65.73
62779;BME280;48821;48.796;2.396;2024-01-15T04:02:40;100794.25;;;2.62;65.46
62779;BME280;48821;48.796;2.396;2024-01-15T04:03:52;100789.03;;;2.62;65.47
62779;BME280;48821;48.796;2.396;2024-01-15T04:05:04;100784.72;;;2.63;66.29
62779;BME280;48821;48.796;2.396;2024-01-15T04:06:16;100782.13;;;2.64;65.56
62779;BME280;48821;48.796;2.396;2024-01-15T04:07:28;100779.53;;;2.64;65.81
62779;BME280;48821;48.796;2.396;2024-01-15T04:08:40;100773.50;;;2.65;66.42
62779;BME280;48821;48.796;2.396;2024-01-15T04:09:52;100774.34;;;2.66;65.82
62779;BME280;48821;48.796;2.396;2024-01-15T04:11:04;100769.16;;;2.66;66.06
62779;BME280;48821;48.796;2.396;2024-01-15T04:12:16;100758.78;;;2.66;65.93
62779;BME280;48821;48.796;2.396;2024-01-15T04:13:27;100762.25;;;2.66;66.25
62779;BME280;48821;48.796;2.396;2024-01-15T04:14:39;100761.38;;;2.66;66.12
62779;BME280;48821;48.796;2.396;2024-01-15T04:15:50;100753.59;;;2.66;65.99
62779;BME280;48821;48.796;2.396;2024-01-15T04:17:02;100754.47;;;2.66;66.23
62779;BME280;48821;48.796;2.396;2024-01-15T04:18:15;100754.47;;;2.66;66.38
62779;BME280;48821;48.796;2.396;2024-01-15T04:19:27;100753.59;;;2.67;66.85
62779;BME280;48821;48.796;2.396;2024-01-15T04:20:39;100751.88;;;2.66;66.54
62779;BME280;48821;48.796;2.396;2024-01-15T04:21:51;100748.38;;;2.67;65.95
62779;BME280;48821;48.796;2.396;2024-01-15T04:23:03;100759.66;;;2.66;66.25
62779;BME280;48821;48.796;2.396;2024-01-15T04:24:15;100748.38;;;2.67;66.81
62779;BME280;48821;48.796;2.396;2024-01-15T04:25:29;100745.78;;;2.67;66.81
62779;BME280;48821;48.796;2.396;2024-01-15T04:26:42;100748.38;;;2.67;66.60
62779;BME280;48821;48.796;2.396;2024-01-15T04:27:56;100744.06;;;2.68;67.44
62779;BME280;48821;48.796;2.396;2024-01-15T04:29:07;100741.47;;;2.68;66.32
62779;BME280;48821;48.796;2.396;2024-01-15T04:30:19;100750.13;;;2.68;66.41
62779;BME280;48821;48.796;2.396;2024-01-15T04:31:31;100744.06;;;2.69;66.44
62779;BME280;48821;48.796;2.396;2024-01-15T04:32:43;100733.69;;;2.69;66.60
62779;BME280;48821;48.796;2.396;2024-01-15T04:33:55;100738.03;;;2.69;67.21
62779;BME280;48821;48.796;2.396;2024-01-15T04:35:07;100742.34;;;2.70;67.13
62779;BME280;48821;48.796;2.396;2024-01-15T04:36:19;100740.59;;;2.67;67.14
62779;BME280;48821;48.796;2.396;2024-01-15T04:37:31;100740.63;;;2.69;66.81
62779;BME280;48821;48.796;2.396;2024-01-15T04:38:43;100732.81;;;2.67;66.67
62779;BME280;48821;48.796;2.396;2024-01-15T04:39:54;100734.53;;;2.67;66.67
62779;BME280;48821;48.796;2.396;2024-01-15T04:41:05;100726.78;;;2.65;66.51
62779;BME280;48821;48.796;2.396;2024-01-15T04:42:17;100727.63;;;2.64;66.48
62779;BME280;48821;48.796;2.396;2024-01-15T04:43:30;100727.63;;;2.63;67.01
62779;BME280;48821;48.796;2.396;2024-01-15T04:44:43;100729.34;;;2.62;66.21
62779;BME280;48821;48.796;2.396;2024-01-15T04:45:55;100729.34;;;2.62;66.11
62779;BME280;48821;48.796;2.396;2024-01-15T04:47:07;100732.84;;;2.61;66.76
62779;BME280;48821;48.796;2.396;2024-01-15T04:48:19;100728.50;;;2.60;67.03
62779;BME280;48821;48.796;2.396;2024-01-15T04:49:31;100725.91;;;2.60;66.87
62779;BME280;48821;48.796;2.396;2024-01-15T04:50:43;100733.69;;;2.60;66.84
62779;BME280;48821;48.796;2.396;2024-01-15T04:51:55;100727.66;;;2.61;66.67
62779;BME280;48821;48.796;2.396;2024-01-15T04:53:06;100729.38;;;2.61;66.45
62779;BME280;48821;48.796;2.396;2024-01-15T04:54:18;100731.09;;;2.60;67.10
62779;BME280;48821;48.796;2.396;2024-01-15T04:55:30;100732.84;;;2.61;66.94
62779;BME280;48821;48.796;2.396;2024-01-15T04:56:42;100723.31;;;2.63;66.77
62779;BME280;48821;48.796;2.396;2024-01-15T04:57:55;100723.31;;;2.63;67.11
62779;BME280;48821;48.796;2.396;2024-01-15T04:59:07;100725.03;;;2.64;66.80
62779;BME280;48821;48.796;2.396;2024-01-15T05:00:19;100725.91;;;2.65;67.33
62779;BME280;48821;48.796;2.396;2024-01-15T05:01:31;100723.31;;;2.66;66.80
62779;BME280;48821;48.796;2.396;2024-01-15T05:02:43;100725.03;;;2.67;67.17
62779;BME280;48821;48.796;2.396;2024-01-15T05:03:55;100722.44;;;2.67;67.21
62779;BME280;48821;48.796;2.396;2024-01-15T05:05:07;100718.09;;;2.69;67.39
62779;BME280;48821;48.796;2.396;2024-01-15T05:06:19;100718.09;;;2.69;67.07
62779;BME280;48821;48.796;2.396;2024-01-15T05:07:31;100719.84;;;2.69;66.88
62779;BME280;48821;48.796;2.396;2024-01-15T05:08:43;100718.09;;;2.69;67.35
62779;BME280;48821;48.796;2.396;2024-01-15T05:09:54;100719.84;;;2.67;66.88
62779;BME280;48821;48.796;2.396;2024-01-15T05:11:06;100718.97;;;2.70;66.98
62779;BME280;48821;48.796;2.396;2024-01-15T05:12:18;100720.69;;;2.69;67.01
62779;BME280;48821;48.796;2.396;2024-01-15T05:13:30;100718.97;;;2.70;67.12
62779;BME280;48821;48.796;2.396;2024-01-15T05:14:42;100725.03;;;2.70;67.40
62779;BME280;48821;48.796;2.396;2024-01-15T05:15:54;100719.84;;;2.70;67.10
62779;BME280;48821;48.796;2.396;2024-01-15T05:17:05;100725.91;;;2.71;67.71
62779;BME280;48821;48.796;2.396;2024-01-15T05:18:17;100730.22;;;2.70;67.16
62779;BME280;48821;48.796;2.396;2024-01-15T05:19:29;100721.59;;;2.72;67.45
62779;BME280;48821;48.796;2.396;2024-01-15T05:20:41;100717.25;;;2.70;67.63
62779;BME280;48821;48.796;2.396;2024-01-15T05:21:53;100716.41;;;2.72;68.08
62779;BME280;48821;48.796;2.396;2024-01-15T05:23:06;100719.84;;;2.70;67.42
62779;BME280;48821;48.796;2.396;2024-01-15T05:24:17;100716.38;;;2.70;67.87
62779;BME280;48821;48.796;2.396;2024-01-15T05:25:29;100710.34;;;2.71;67.54
62779;BME280;48821;48.796;2.396;2024-01-15T05:26:41;100711.22;;;2.72;67.62
62779;BME280;48821;48.796;2.396;2024-01-15T05:27:52;100705.13;;;2.73;67.88
62779;BME280;48821;48.796;2.396;2024-01-15T05:29:04;100711.19;;;2.73;67.30
62779;BME280;48821;48.796;2.396;2024-01-15T05:30:15;100702.53;;;2.74;67.83
62779;BME280;48821;48.796;2.396;2024-01-15T05:31:30;100704.28;;;2.74;68.04
62779;BME280;48821;48.796;2.396;2024-01-15T05:32:41;100706.00;;;2.75;68.15
62779;BME280;48821;48.796;2.396;2024-01-15T05:33:53;100710.34;;;2.76;67.88
62779;BME280;48821;48.796;2.396;2024-01-15T05:35:05;100704.25;;;2.77;68.10
62779;BME280;48821;48.796;2.396;2024-01-15T05:36:17;100701.66;;;2.77;67.55
62779;BME280;48821;48.796;2.396;2024-01-15T05:37:28;100709.47;;;2.78;67.95
62779;BME280;48821;48.796;2.396;2024-01-15T05:38:40;100710.34;;;2.79;68.05
62779;BME280;48821;48.796;2.396;2024-01-15T05:39:52;100704.28;;;2.78;67.64
62779;BME280;48821;48.796;2.396;2024-01-15T05:41:05;100696.47;;;2.78;67.87
62779;BME280;48821;48.796;2.396;2024-01-15T05:42:16;100702.53;;;2.79;67.26
62779;BME280;48821;48.796;2.396;2024-01-15T05:43:28;100701.66;;;2.80;68.07
62779;BME280;48821;48.796;2.396;2024-01-15T05:44:40;100707.72;;;2.80;68.35
62779;BME280;48821;48.796;2.396;2024-01-15T05:45:52;100702.53;;;2.82;68.15
62779;BME280;48821;48.796;2.396;2024-01-15T05:47:04;100704.25;;;2.81;67.92
62779;BME280;48821;48.796;2.396;2024-01-15T05:48:15;100702.53;;;2.82;67.77
62779;BME280;48821;48.796;2.396;2024-01-15T05:49:27;100699.06;;;2.83;68.42
62779;BME280;48821;48.796;2.396;2024-01-15T05:50:39;100698.19;;;2.83;68.49
62779;BME280;48821;48.796;2.396;2024-01-15T05:51:51;100695.59;;;2.83;67.92
62779;BME280;48821;48.796;2.396;2024-01-15T05:53:03;100697.34;;;2.82;67.96
62779;BME280;48821;48.796;2.396;2024-01-15T05:54:14;100693.88;;;2.83;67.77
62779;BME280;48821;48.796;2.396;2024-01-15T05:55:26;100688.69;;;2.83;67.67
62779;BME280;48821;48.796;2.396;2024-01-15T05:56:37;100688.69;;;2.83;67.94
62779;BME280;48821;48.796;2.396;2024-01-15T05:57:48;100691.28;;;2.86;68.22
62779;BME280;48821;48.796;2.396;2024-01-15T05:59:00;100690.41;;;2.86;67.85
62779;BME280;48821;48.796;2.396;2024-01-15T06:00:12;100692.16;;;2.85;68.00
62779;BME280;48821;48.796;2.396;2024-01-15T06:01:23;100683.50;;;2.86;68.26
62779;BME280;48821;48.796;2.396;2024-01-15T06:02:35;100693.00;;;2.87;67.80
62779;BME280;48821;48.796;2.396;2024-01-15T06:03:48;100687.81;;;2.87;68.34
62779;BME280;48821;48.796;2.396;2024-01-15T06:05:00;100682.63;;;2.86;68.42
62779;BME280;48821;48.796;2.396;2024-01-15T06:06:13;100682.63;;;2.86;68.00
62779;BME280;48821;48.796;2.396;2024-01-15T06:07:24;100681.75;;;2.85;68.53
62779;BME280;48821;48.796;2.396;2024-01-15T06:08:37;100693.00;;;2.87;67.96
62779;BME280;48821;48.796;2.396;2024-01-15T06:09:49;100686.94;;;2.87;68.53
62779;BME280;48821;48.796;2.396;2024-01-15T06:11:01;100686.09;;;2.88;68.00
62779;BME280;48821;48.796;2.396;2024-01-15T06:12:12;100688.69;;;2.88;68.64
62779;BME280;48821;48.796;2.396;2024-01-15T06:13:24;100686.94;;;2.88;68.47
62779;BME280;48821;48.796;2.396;2024-01-15T06:14:36;100689.53;;;2.90;68.05
62779;BME280;48821;48.796;2.396;2024-01-15T06:15:48;100690.41;;;2.89;67.78
62779;BME280;48821;48.796;2.396;2024-01-15T06:17:00;100689.56;;;2.88;68.25
62779;BME280;48821;48.796;2.396;2024-01-15T06:18:12;100685.22;;;2.89;68.13
62779;BME280;48821;48.796;2.396;2024-01-15T06:19:24;100686.94;;;2.88;68.93
62779;BME280;48821;48.796;2.396;2024-01-15T06:20:35;100696.44;;;2.89;68.70